sensor_id;sensor_type;location;lat;lon;timestamp;pressure;altitude;pressure_sealevel;temperature;humidity
13553;BME280;6847;48.830;9.116;2024-01-06T00:00:10;96708.69;;;8.25;69.65
13553;BME280;6847;48.830;9.116;2024-01-06T00:02:56;96732.50;;;8.42;69.74
13553;BME280;6847;48.830;9.116;2024-01-06T00:05:42;96733.59;;;8.41;69.76
13553;BME280;6847;48.830;9.116;2024-01-06T00:08:28;96709.28;;;8.22;69.48
13553;BME280;6847;48.830;9.116;2024-01-06T00:11:13;96678.81;;;8.03;69.42
13553;BME280;6847;48.830;9.116;2024-01-06T00:13:59;96729.66;;;8.28;69.98
13553;BME280;6847;48.830;9.116;2024-01-06T00:16:46;96747.56;;;8.43;69.44
13553;BME280;6847;48.830;9.116;2024-01-06T00:46:22;96503.72;;;6.80;69.92
13553;BME280;6847;48.830;9.116;2024-01-06T00:53:12;96465.84;;;6.53;69.58
13553;BME280;6847;48.830;9.116;2024-01-06T01:46:57;96806.78;;;8.29;70.13
13553;BME280;6847;48.830;9.116;2024-01-06T01:50:10;96558.22;;;6.62;70.10
13553;BME280;6847;48.830;9.116;2024-01-06T01:52:59;96807.88;;;8.28;69.73
13553;BME280;6847;48.830;9.116;2024-01-06T01:55:50;96724.91;;;7.77;69.85
13553;BME280;6847;48.830;9.116;2024-01-06T01:58:45;96692.13;;;7.47;70.10
13553;BME280;6847;48.830;9.116;2024-01-06T02:01:34;96819.16;;;8.30;69.69
13553;BME280;6847;48.830;9.116;2024-01-06T02:04:22;96818.66;;;8.28;70.13
13553;BME280;6847;48.830;9.116;2024-01-06T02:07:08;96765.22;;;7.88;70.10
13553;BME280;6847;48.830;9.116;2024-01-06T02:12:38;96821.34;;;8.28;70.18
13553;BME280;6847;48.830;9.116;2024-01-06T02:15:39;96799.44;;;8.11;69.57
13553;BME280;6847;48.830;9.116;2024-01-06T03:48:44;96753.38;;;7.36;69.65
13553;BME280;6847;48.830;9.116;2024-01-06T03:51:30;96846.03;;;7.93;69.46
13553;BME280;6847;48.830;9.116;2024-01-06T03:54:16;96849.81;;;7.92;69.73
13553;BME280;6847;48.830;9.116;2024-01-06T03:57:06;96826.75;;;7.80;69.41
13553;BME280;6847;48.830;9.116;2024-01-06T04:56:24;96779.81;;;7.34;69.30
13553;BME280;6847;48.830;9.116;2024-01-06T05:03:40;96876.75;;;7.92;69.45
13553;BME280;6847;48.830;9.116;2024-01-06T05:22:20;96671.31;;;6.42;69.91
13553;BME280;6847;48.830;9.116;2024-01-06T05:25:13;96895.09;;;7.90;69.36
13553;BME280;6847;48.830;9.116;2024-01-06T05:27:58;96849.28;;;7.61;69.18
13553;BME280;6847;48.830;9.116;2024-01-06T05:30:44;96878.53;;;7.72;69.38
13553;BME280;6847;48.830;9.116;2024-01-06T05:33:30;96882.00;;;7.78;69.32
13553;BME280;6847;48.830;9.116;2024-01-06T05:36:20;96907.47;;;7.91;69.25
13553;BME280;6847;48.830;9.116;2024-01-06T05:39:07;96915.03;;;7.89;69.41
13553;BME280;6847;48.830;9.116;2024-01-06T05:41:55;96905.88;;;7.90;69.34
13553;BME280;6847;48.830;9.116;2024-01-06T05:44:41;96902.31;;;7.94;69.69
13553;BME280;6847;48.830;9.116;2024-01-06T05:47:28;96832.44;;;7.45;69.06
13553;BME280;6847;48.830;9.116;2024-01-06T05:50:16;96906.88;;;7.94;69.08
13553;BME280;6847;48.830;9.116;2024-01-06T05:53:05;96872.66;;;7.65;68.94
13553;BME280;6847;48.830;9.116;2024-01-06T05:55:54;96915.84;;;7.89;69.14
13553;BME280;6847;48.830;9.116;2024-01-06T06:07:48;96939.22;;;7.94;69.06
13553;BME280;6847;48.830;9.116;2024-01-06T06:46:44;96874.34;;;7.61;68.98
13553;BME280;6847;48.830;9.116;2024-01-06T07:26:20;97008.47;;;8.27;69.32
13553;BME280;6847;48.830;9.116;2024-01-06T07:29:25;96701.50;;;6.28;69.27
13553;BME280;6847;48.830;9.116;2024-01-06T07:32:50;97008.88;;;8.44;68.93
13553;BME280;6847;48.830;9.116;2024-01-06T07:36:18;97002.97;;;8.42;69.16
13553;BME280;6847;48.830;9.116;2024-01-06T07:39:22;97026.13;;;8.48;68.58
13553;BME280;6847;48.830;9.116;2024-01-06T08:03:14;97022.00;;;8.56;68.85
13553;BME280;6847;48.830;9.116;2024-01-06T08:06:42;97030.88;;;8.57;69.31
13553;BME280;6847;48.830;9.116;2024-01-06T08:09:46;96867.41;;;7.50;69.02
13553;BME280;6847;48.830;9.116;2024-01-06T08:12:42;97038.31;;;8.70;68.89
13553;BME280;6847;48.830;9.116;2024-01-06T08:15:30;97012.56;;;8.53;68.26
13553;BME280;6847;48.830;9.116;2024-01-06T08:18:35;97033.72;;;8.70;69.06
13553;BME280;6847;48.830;9.116;2024-01-06T08:21:36;97010.91;;;8.58;68.47
13553;BME280;6847;48.830;9.116;2024-01-06T08:24:27;97031.72;;;8.81;68.82
13553;BME280;6847;48.830;9.116;2024-01-06T08:27:33;97037.63;;;8.83;67.98
13553;BME280;6847;48.830;9.116;2024-01-06T08:30:21;96785.28;;;7.19;68.57
13553;BME280;6847;48.830;9.116;2024-01-06T08:33:08;97045.16;;;8.86;68.79
13553;BME280;6847;48.830;9.116;2024-01-06T08:36:11;97021.53;;;8.73;68.46
13553;BME280;6847;48.830;9.116;2024-01-06T08:38:57;96997.09;;;8.64;68.25
13553;BME280;6847;48.830;9.116;2024-01-06T08:41:42;97054.63;;;9.07;68.12
13553;BME280;6847;48.830;9.116;2024-01-06T08:44:28;97058.31;;;9.16;68.17
13553;BME280;6847;48.830;9.116;2024-01-06T08:47:14;97060.88;;;9.26;67.67
13553;BME280;6847;48.830;9.116;2024-01-06T08:50:02;97058.44;;;9.30;67.91
13553;BME280;6847;48.830;9.116;2024-01-06T08:52:50;97062.22;;;9.29;68.21
13553;BME280;6847;48.830;9.116;2024-01-06T08:55:35;97061.41;;;9.28;68.08
13553;BME280;6847;48.830;9.116;2024-01-06T08:58:20;97064.03;;;9.34;67.93
13553;BME280;6847;48.830;9.116;2024-01-06T09:01:06;97069.66;;;9.37;67.86
13553;BME280;6847;48.830;9.116;2024-01-06T09:04:02;97039.03;;;9.23;68.06
13553;BME280;6847;48.830;9.116;2024-01-06T09:06:51;97064.94;;;9.48;68.13
13553;BME280;6847;48.830;9.116;2024-01-06T09:10:02;97063.63;;;9.45;67.66
13553;BME280;6847;48.830;9.116;2024-01-06T09:12:47;97078.81;;;9.60;67.64
13553;BME280;6847;48.830;9.116;2024-01-06T09:15:32;97073.88;;;9.67;67.97
13553;BME280;6847;48.830;9.116;2024-01-06T09:18:19;97081.91;;;9.72;67.69
13553;BME280;6847;48.830;9.116;2024-01-06T09:21:05;97064.69;;;9.68;67.66
13553;BME280;6847;48.830;9.116;2024-01-06T09:23:51;97079.16;;;9.77;68.07
13553;BME280;6847;48.830;9.116;2024-01-06T09:26:39;97061.66;;;9.70;67.88
13553;BME280;6847;48.830;9.116;2024-01-06T09:29:24;97062.97;;;9.72;67.48
13553;BME280;6847;48.830;9.116;2024-01-06T09:32:10;97078.53;;;9.80;67.17
13553;BME280;6847;48.830;9.116;2024-01-06T09:34:56;97004.75;;;9.23;67.23
13553;BME280;6847;48.830;9.116;2024-01-06T09:37:42;97080.28;;;9.71;68.46
13553;BME280;6847;48.830;9.116;2024-01-06T09:40:31;97099.03;;;9.86;67.64
13553;BME280;6847;48.830;9.116;2024-01-06T09:43:20;97106.03;;;9.87;67.64
13553;BME280;6847;48.830;9.116;2024-01-06T09:46:15;97114.16;;;9.87;67.33
13553;BME280;6847;48.830;9.116;2024-01-06T09:49:02;97084.59;;;9.72;67.81
13553;BME280;6847;48.830;9.116;2024-01-06T09:51:53;97046.09;;;9.43;67.58
13553;BME280;6847;48.830;9.116;2024-01-06T09:54:51;97110.63;;;9.87;67.21
13553;BME280;6847;48.830;9.116;2024-01-06T09:57:38;97119.28;;;9.89;67.53
13553;BME280;6847;48.830;9.116;2024-01-06T10:00:26;97116.25;;;9.90;67.63
13553;BME280;6847;48.830;9.116;2024-01-06T10:03:13;97106.84;;;9.88;68.01
13553;BME280;6847;48.830;9.116;2024-01-06T10:06:00;97055.66;;;9.54;67.63
13553;BME280;6847;48.830;9.116;2024-01-06T10:08:49;97102.25;;;9.88;68.05
13553;BME280;6847;48.830;9.116;2024-01-06T10:11:36;97090.16;;;9.81;67.64
13553;BME280;6847;48.830;9.116;2024-01-06T10:14:25;97068.47;;;9.67;67.79
13553;BME280;6847;48.830;9.116;2024-01-06T10:17:15;97118.91;;;9.95;67.35
13553;BME280;6847;48.830;9.116;2024-01-06T10:20:06;97113.50;;;9.95;67.36
13553;BME280;6847;48.830;9.116;2024-01-06T10:22:53;97119.47;;;9.92;67.68
13553;BME280;6847;48.830;9.116;2024-01-06T10:25:39;97073.88;;;9.67;67.35
13553;BME280;6847;48.830;9.116;2024-01-06T10:28:26;97098.06;;;9.77;67.44
13553;BME280;6847;48.830;9.116;2024-01-06T10:31:12;97082.50;;;9.69;68.01
13553;BME280;6847;48.830;9.116;2024-01-06T10:34:02;97098.94;;;9.73;67.43
13553;BME280;6847;48.830;9.116;2024-01-06T10:36:49;96985.66;;;8.96;67.44
13553;BME280;6847;48.830;9.116;2024-01-06T10:39:36;96967.69;;;8.86;68.04
13553;BME280;6847;48.830;9.116;2024-01-06T10:42:21;96920.84;;;8.53;67.57
13553;BME280;6847;48.830;9.116;2024-01-06T10:45:07;97076.28;;;9.50;67.82
13553;BME280;6847;48.830;9.116;2024-01-06T10:47:54;97111.47;;;9.63;67.48
13553;BME280;6847;48.830;9.116;2024-01-06T10:50:52;97091.00;;;9.39;67.68
13553;BME280;6847;48.830;9.116;2024-01-06T10:53:40;97061.53;;;9.18;67.76
13553;BME280;6847;48.830;9.116;2024-01-06T10:56:31;97124.03;;;9.54;68.36
13553;BME280;6847;48.830;9.116;2024-01-06T10:59:23;97114.84;;;9.55;67.87
13553;BME280;6847;48.830;9.116;2024-01-06T11:02:12;97121.84;;;9.56;67.94
13553;BME280;6847;48.830;9.116;2024-01-06T11:05:00;97012.19;;;8.89;67.92
13553;BME280;6847;48.830;9.116;2024-01-06T11:07:48;97117.16;;;9.62;67.76
13553;BME280;6847;48.830;9.116;2024-01-06T11:10:37;97100.59;;;9.50;67.72
13553;BME280;6847;48.830;9.116;2024-01-06T11:13:25;97103.56;;;9.48;67.63
13553;BME280;6847;48.830;9.116;2024-01-06T11:16:35;97109.13;;;9.57;68.57
13553;BME280;6847;48.830;9.116;2024-01-06T11:19:45;97084.50;;;9.40;68.04
13553;BME280;6847;48.830;9.116;2024-01-06T11:22:38;97109.06;;;9.62;67.39
13553;BME280;6847;48.830;9.116;2024-01-06T11:25:25;97117.31;;;9.71;67.62
13553;BME280;6847;48.830;9.116;2024-01-06T11:28:13;97111.13;;;9.70;67.90
13553;BME280;6847;48.830;9.116;2024-01-06T11:31:05;97087.25;;;9.58;67.51
13553;BME280;6847;48.830;9.116;2024-01-06T11:33:54;97068.16;;;9.50;68.06
13553;BME280;6847;48.830;9.116;2024-01-06T11:36:40;97082.03;;;9.62;67.57
13553;BME280;6847;48.830;9.116;2024-01-06T11:39:34;97063.78;;;9.54;67.86
13553;BME280;6847;48.830;9.116;2024-01-06T11:42:32;97074.69;;;9.68;67.80
13553;BME280;6847;48.830;9.116;2024-01-06T11:45:20;97067.72;;;9.61;67.35
13553;BME280;6847;48.830;9.116;2024-01-06T11:48:10;97086.50;;;9.72;67.77
13553;BME280;6847;48.830;9.116;2024-01-06T11:50:57;97090.53;;;9.74;67.69
13553;BME280;6847;48.830;9.116;2024-01-06T11:53:43;97082.78;;;9.68;67.84
13553;BME280;6847;48.830;9.116;2024-01-06T11:56:29;97074.81;;;9.57;68.05
13553;BME280;6847;48.830;9.116;2024-01-06T11:59:22;97038.19;;;9.27;67.72
13553;BME280;6847;48.830;9.116;2024-01-06T12:02:11;97076.19;;;9.55;67.81
13553;BME280;6847;48.830;9.116;2024-01-06T12:05:02;97070.78;;;9.55;67.43
13553;BME280;6847;48.830;9.116;2024-01-06T12:07:53;97065.38;;;9.55;68.31
13553;BME280;6847;48.830;9.116;2024-01-06T12:10:41;97061.81;;;9.59;68.36
13553;BME280;6847;48.830;9.116;2024-01-06T12:53:22;96870.63;;;8.58;67.63
13553;BME280;6847;48.830;9.116;2024-01-06T12:56:54;97068.19;;;9.87;68.02
13553;BME280;6847;48.830;9.116;2024-01-06T13:00:10;97073.50;;;9.92;67.94
13553;BME280;6847;48.830;9.116;2024-01-06T13:03:49;96760.78;;;7.97;67.29
13553;BME280;6847;48.830;9.116;2024-01-06T13:22:46;96922.56;;;8.44;67.16
13553;BME280;6847;48.830;9.116;2024-01-06T13:25:40;97072.41;;;9.32;68.05
13553;BME280;6847;48.830;9.116;2024-01-06T13:28:41;97093.09;;;9.42;68.18
13553;BME280;6847;48.830;9.116;2024-01-06T13:31:27;96936.59;;;8.46;68.03
13553;BME280;6847;48.830;9.116;2024-01-06T13:34:13;97093.69;;;9.39;67.88
13553;BME280;6847;48.830;9.116;2024-01-06T13:36:58;97091.28;;;9.37;68.32
13553;BME280;6847;48.830;9.116;2024-01-06T13:39:50;97096.09;;;9.40;68.12
13553;BME280;6847;48.830;9.116;2024-01-06T13:42:37;97103.91;;;9.42;68.17
13553;BME280;6847;48.830;9.116;2024-01-06T13:45:24;97077.63;;;9.28;67.82
13553;BME280;6847;48.830;9.116;2024-01-06T13:48:09;97075.75;;;9.24;68.22
13553;BME280;6847;48.830;9.116;2024-01-06T13:51:05;97117.38;;;9.47;68.46
13553;BME280;6847;48.830;9.116;2024-01-06T13:53:53;97087.00;;;9.31;67.30
13553;BME280;6847;48.830;9.116;2024-01-06T13:56:41;97115.31;;;9.39;68.09
13553;BME280;6847;48.830;9.116;2024-01-06T13:59:27;97107.59;;;9.27;68.18
13553;BME280;6847;48.830;9.116;2024-01-06T14:02:12;97097.72;;;9.17;67.82
13553;BME280;6847;48.830;9.116;2024-01-06T14:05:22;97124.09;;;9.25;67.94
13553;BME280;6847;48.830;9.116;2024-01-06T14:09:01;96797.16;;;7.18;68.21
13553;BME280;6847;48.830;9.116;2024-01-06T14:23:22;97127.34;;;9.22;68.61
13553;BME280;6847;48.830;9.116;2024-01-06T14:27:26;97052.31;;;8.72;68.37
13553;BME280;6847;48.830;9.116;2024-01-06T14:38:07;97138.41;;;9.26;68.55
13553;BME280;6847;48.830;9.116;2024-01-06T14:41:29;97144.06;;;9.30;67.74
13553;BME280;6847;48.830;9.116;2024-01-06T14:47:42;96823.44;;;7.31;68.23
13553;BME280;6847;48.830;9.116;2024-01-06T14:49:00;96944.03;;;8.02;67.74
13553;BME280;6847;48.830;9.116;2024-01-06T14:52:08;97005.84;;;8.22;68.37
13553;BME280;6847;48.830;9.116;2024-01-06T14:59:32;97149.41;;;9.06;68.66
13553;BME280;6847;48.830;9.116;2024-01-06T15:03:11;97044.63;;;8.26;68.53
13553;BME280;6847;48.830;9.116;2024-01-06T15:06:24;96859.16;;;7.02;68.62
13553;BME280;6847;48.830;9.116;2024-01-06T15:13:47;97164.66;;;8.91;68.60
13553;BME280;6847;48.830;9.116;2024-01-06T15:33:24;96871.72;;;6.73;68.53
13553;BME280;6847;48.830;9.116;2024-01-06T15:36:12;97194.81;;;8.70;68.63
13553;BME280;6847;48.830;9.116;2024-01-06T15:39:24;97190.25;;;8.70;69.03
13553;BME280;6847;48.830;9.116;2024-01-06T15:42:48;96891.09;;;6.75;69.36
13553;BME280;6847;48.830;9.116;2024-01-06T15:46:04;97198.06;;;8.67;68.97
13553;BME280;6847;48.830;9.116;2024-01-06T15:49:32;96991.38;;;7.35;68.44
13553;BME280;6847;48.830;9.116;2024-01-06T18:01:54;97101.59;;;8.14;69.09
13553;BME280;6847;48.830;9.116;2024-01-06T18:04:40;97253.88;;;9.10;69.18
13553;BME280;6847;48.830;9.116;2024-01-06T18:07:26;97079.88;;;8.01;69.26
13553;BME280;6847;48.830;9.116;2024-01-06T18:10:15;97256.00;;;9.13;68.55
13553;BME280;6847;48.830;9.116;2024-01-06T18:13:01;97258.13;;;9.16;69.00
13553;BME280;6847;48.830;9.116;2024-01-06T18:15:47;97255.97;;;9.18;68.41
13553;BME280;6847;48.830;9.116;2024-01-06T18:18:34;97222.66;;;8.99;68.76
13553;BME280;6847;48.830;9.116;2024-01-06T18:21:22;97257.81;;;9.23;68.77
13553;BME280;6847;48.830;9.116;2024-01-06T18:24:07;97215.91;;;8.97;68.82
13553;BME280;6847;48.830;9.116;2024-01-06T18:26:53;97263.44;;;9.26;68.74
13553;BME280;6847;48.830;9.116;2024-01-06T18:29:40;97251.59;;;9.22;68.94
13553;BME280;6847;48.830;9.116;2024-01-06T18:32:33;97237.09;;;9.13;69.46
13553;BME280;6847;48.830;9.116;2024-01-06T18:35:20;97262.38;;;9.27;68.75
13553;BME280;6847;48.830;9.116;2024-01-06T18:38:06;97249.16;;;9.21;69.06
13553;BME280;6847;48.830;9.116;2024-01-06T18:52:08;97263.13;;;9.33;69.06
13553;BME280;6847;48.830;9.116;2024-01-06T18:54:54;97252.13;;;9.24;68.70
13553;BME280;6847;48.830;9.116;2024-01-06T18:57:40;97245.16;;;9.18;68.46
13553;BME280;6847;48.830;9.116;2024-01-06T19:00:30;97270.13;;;9.34;68.86
13553;BME280;6847;48.830;9.116;2024-01-06T19:03:22;97208.09;;;8.95;68.97
13553;BME280;6847;48.830;9.116;2024-01-06T19:06:38;97264.72;;;9.34;69.45
13553;BME280;6847;48.830;9.116;2024-01-06T19:13:25;97239.78;;;9.13;68.36
13553;BME280;6847;48.830;9.116;2024-01-06T19:16:16;97269.31;;;9.34;68.46
13553;BME280;6847;48.830;9.116;2024-01-06T19:19:50;97011.13;;;7.64;69.07
13553;BME280;6847;48.830;9.116;2024-01-06T19:22:36;97257.09;;;9.12;68.95
13553;BME280;6847;48.830;9.116;2024-01-06T19:25:22;97255.25;;;9.08;68.57
13553;BME280;6847;48.830;9.116;2024-01-06T19:28:07;97249.59;;;9.04;68.88
13553;BME280;6847;48.830;9.116;2024-01-06T19:30:55;97260.88;;;9.11;68.52
13553;BME280;6847;48.830;9.116;2024-01-06T19:33:42;97227.59;;;8.87;69.20
13553;BME280;6847;48.830;9.116;2024-01-06T19:36:37;97273.63;;;9.06;69.41
13553;BME280;6847;48.830;9.116;2024-01-06T19:39:37;97195.44;;;8.57;69.07
13553;BME280;6847;48.830;9.116;2024-01-06T19:42:36;97194.41;;;8.52;69.02
13553;BME280;6847;48.830;9.116;2024-01-06T19:45:37;97260.19;;;9.01;68.87
13553;BME280;6847;48.830;9.116;2024-01-06T19:48:38;97232.53;;;8.80;69.20
13553;BME280;6847;48.830;9.116;2024-01-06T19:51:24;97260.00;;;8.87;69.68
13553;BME280;6847;48.830;9.116;2024-01-06T19:54:24;97270.25;;;8.90;69.33
13553;BME280;6847;48.830;9.116;2024-01-06T19:57:24;97263.22;;;8.89;69.89
13553;BME280;6847;48.830;9.116;2024-01-06T20:00:11;97277.25;;;8.91;69.18
13553;BME280;6847;48.830;9.116;2024-01-06T20:03:11;97275.06;;;8.93;69.26
13553;BME280;6847;48.830;9.116;2024-01-06T20:06:00;97278.34;;;8.90;69.48
13553;BME280;6847;48.830;9.116;2024-01-06T20:08:48;97269.47;;;8.84;69.10
13553;BME280;6847;48.830;9.116;2024-01-06T20:11:34;97240.16;;;8.68;69.74
13553;BME280;6847;48.830;9.116;2024-01-06T20:14:33;97137.78;;;8.03;69.18
13553;BME280;6847;48.830;9.116;2024-01-06T20:17:32;97279.94;;;8.91;69.59
13553;BME280;6847;48.830;9.116;2024-01-06T20:20:24;97277.75;;;8.93;69.42
13553;BME280;6847;48.830;9.116;2024-01-06T20:26:51;97110.13;;;7.93;68.83
13553;BME280;6847;48.830;9.116;2024-01-06T20:29:53;97242.25;;;8.76;69.81
13553;BME280;6847;48.830;9.116;2024-01-06T20:32:53;97248.66;;;8.90;69.47
13553;BME280;6847;48.830;9.116;2024-01-06T20:35:53;97274.50;;;8.96;69.41
13553;BME280;6847;48.830;9.116;2024-01-06T20:38:56;97269.09;;;8.96;69.57
13553;BME280;6847;48.830;9.116;2024-01-06T20:56:22;97020.81;;;7.70;69.28
13553;BME280;6847;48.830;9.116;2024-01-06T20:59:08;97265.59;;;9.30;69.35
13553;BME280;6847;48.830;9.116;2024-01-06T21:02:09;97262.91;;;9.30;69.00
13553;BME280;6847;48.830;9.116;2024-01-06T21:05:00;97253.50;;;9.22;69.71
13553;BME280;6847;48.830;9.116;2024-01-06T21:08:00;97242.03;;;9.06;69.16
13553;BME280;6847;48.830;9.116;2024-01-06T21:11:00;97263.44;;;9.26;69.26
13553;BME280;6847;48.830;9.116;2024-01-06T21:13:48;97262.91;;;9.30;69.37
13553;BME280;6847;48.830;9.116;2024-01-06T21:16:47;97259.66;;;9.27;68.85
13553;BME280;6847;48.830;9.116;2024-01-06T21:19:46;97213.75;;;8.99;69.55
13553;BME280;6847;48.830;9.116;2024-01-06T21:22:49;97261.84;;;9.25;69.78
13553;BME280;6847;48.830;9.116;2024-01-06T21:25:36;97232.38;;;9.00;69.40
13553;BME280;6847;48.830;9.116;2024-01-06T21:28:22;97263.78;;;9.20;69.49
13553;BME280;6847;48.830;9.116;2024-01-06T21:31:10;97262.97;;;9.19;69.21
13553;BME280;6847;48.830;9.116;2024-01-06T21:34:03;97255.97;;;9.18;68.86
13553;BME280;6847;48.830;9.116;2024-01-06T21:36:49;97071.25;;;7.99;69.40
13553;BME280;6847;48.830;9.116;2024-01-06T21:39:34;97260.56;;;9.18;69.93
13553;BME280;6847;48.830;9.116;2024-01-06T21:42:19;97242.59;;;9.03;69.17
13553;BME280;6847;48.830;9.116;2024-01-06T21:45:05;97252.81;;;9.06;68.93
13553;BME280;6847;48.830;9.116;2024-01-06T21:47:53;97236.72;;;8.96;69.94
13553;BME280;6847;48.830;9.116;2024-01-06T21:50:39;97267.31;;;9.15;69.73
13553;BME280;6847;48.830;9.116;2024-01-06T21:53:26;97277.56;;;9.18;69.99
13553;BME280;6847;48.830;9.116;2024-01-06T21:56:25;97272.19;;;9.18;69.63
13553;BME280;6847;48.830;9.116;2024-01-06T21:59:24;97274.34;;;9.16;69.87
13553;BME280;6847;48.830;9.116;2024-01-06T22:02:17;97276.75;;;9.18;68.92
13553;BME280;6847;48.830;9.116;2024-01-06T22:05:07;97278.13;;;9.15;69.59
13553;BME280;6847;48.830;9.116;2024-01-06T22:07:59;97276.50;;;9.14;69.90
13553;BME280;6847;48.830;9.116;2024-01-06T22:11:01;97269.84;;;9.07;69.54
13553;BME280;6847;48.830;9.116;2024-01-06T22:13:47;97248.66;;;8.90;69.60
13553;BME280;6847;48.830;9.116;2024-01-06T22:16:39;97209.50;;;8.53;69.78
13553;BME280;6847;48.830;9.116;2024-01-06T22:19:28;97289.28;;;9.04;69.93
13553;BME280;6847;48.830;9.116;2024-01-06T22:22:36;97287.94;;;9.01;69.54
13553;BME280;6847;48.830;9.116;2024-01-06T22:25:25;97220.28;;;8.53;69.77
13553;BME280;6847;48.830;9.116;2024-01-06T22:28:15;97236.69;;;8.62;70.04
13553;BME280;6847;48.830;9.116;2024-01-06T22:31:30;97286.91;;;8.97;69.64
13553;BME280;6847;48.830;9.116;2024-01-06T22:34:32;97261.19;;;8.71;69.98
13553;BME280;6847;48.830;9.116;2024-01-06T22:37:18;97253.66;;;8.68;69.71
13553;BME280;6847;48.830;9.116;2024-01-06T22:40:12;97288.53;;;8.98;69.85
13553;BME280;6847;48.830;9.116;2024-01-06T22:43:26;97095.69;;;7.73;69.58
13553;BME280;6847;48.830;9.116;2024-01-06T22:50:33;97297.38;;;9.04;69.83
13553;BME280;6847;48.830;9.116;2024-01-06T22:53:47;97295.00;;;8.97;69.65
13553;BME280;6847;48.830;9.116;2024-01-06T22:56:56;97226.53;;;8.49;70.08
13553;BME280;6847;48.830;9.116;2024-01-06T23:07:36;97281.34;;;8.83;69.57
13553;BME280;6847;48.830;9.116;2024-01-06T23:10:36;97298.88;;;8.86;70.19
13553;BME280;6847;48.830;9.116;2024-01-06T23:24:00;97311.00;;;8.88;69.55
13553;BME280;6847;48.830;9.116;2024-01-06T23:26:47;97323.72;;;8.83;69.79
13553;BME280;6847;48.830;9.116;2024-01-06T23:29:34;97313.50;;;8.80;70.14
13553;BME280;6847;48.830;9.116;2024-01-06T23:32:21;97317.00;;;8.80;69.99
13553;BME280;6847;48.830;9.116;2024-01-06T23:35:08;97132.88;;;7.66;69.93
13553;BME280;6847;48.830;9.116;2024-01-06T23:38:07;97321.81;;;8.88;70.03
13553;BME280;6847;48.830;9.116;2024-01-06T23:51:41;97311.22;;;8.97;70.24
13553;BME280;6847;48.830;9.116;2024-01-06T23:58:27;97307.50;;;8.88;70.10
